createdAt,value
2018-02-17T00:02:06.797Z,27.70
2018-02-17T00:05:30.840Z,30.90
2018-02-17T00:08:54.138Z,31.03
2018-02-17T00:12:18.219Z,30.90
2018-02-17T00:15:41.537Z,30.60
2018-02-17T00:19:04.860Z,29.40
2018-02-17T00:22:28.221Z,28.93
2018-02-17T00:25:51.534Z,31.90
2018-02-17T00:29:14.861Z,32.43
2018-02-17T00:32:38.177Z,33.03
2018-02-17T00:36:01.487Z,30.97
2018-02-17T00:39:25.646Z,30.13
2018-02-17T00:42:48.989Z,31.67
2018-02-17T00:46:13.036Z,32.67
2018-02-17T00:49:37.119Z,31.90
2018-02-17T00:53:01.257Z,31.43
2018-02-17T00:56:24.530Z,32.43
2018-02-17T00:59:48.593Z,30.30
2018-02-17T01:03:11.869Z,31.93
2018-02-17T01:06:35.203Z,35.93
2018-02-17T01:09:59.294Z,35.00
2018-02-17T01:13:22.578Z,33.30
2018-02-17T01:16:46.615Z,33.40
2018-02-17T01:20:10.664Z,33.27
2018-02-17T01:23:34.009Z,34.63
2018-02-17T01:26:57.309Z,35.90
2018-02-17T01:30:20.602Z,32.43
2018-02-17T01:33:44.653Z,37.80
2018-02-17T01:37:07.944Z,36.07
2018-02-17T01:40:31.273Z,34.37
2018-02-17T01:43:54.596Z,34.97
2018-02-17T01:47:18.670Z,35.37
2018-02-17T01:50:41.952Z,37.67
2018-02-17T01:54:06.020Z,36.13
2018-02-17T01:57:29.335Z,34.53
2018-02-17T02:00:52.691Z,34.70
2018-02-17T02:04:16.755Z,37.80
2018-02-17T02:07:40.024Z,37.63
2018-02-17T02:11:03.350Z,38.97
2018-02-17T02:14:26.656Z,39.23
2018-02-17T02:17:49.958Z,35.80
2018-02-17T02:21:14.072Z,37.50
2018-02-17T02:24:37.364Z,36.63
2018-02-17T02:28:01.459Z,38.90
2018-02-17T02:31:24.779Z,35.67
2018-02-17T02:34:48.087Z,33.77
2018-02-17T02:38:12.169Z,35.40
2018-02-17T02:41:35.470Z,38.13
2018-02-17T02:44:58.783Z,35.67
2018-02-17T02:48:22.080Z,38.73
2018-02-17T02:51:46.138Z,39.03
2018-02-17T02:55:09.448Z,36.33
2018-02-17T02:58:33.520Z,38.10
2018-02-17T03:01:57.580Z,36.77
2018-02-17T03:05:20.885Z,34.20
2018-02-17T03:08:44.970Z,34.63
2018-02-17T03:12:09.001Z,37.83
2018-02-17T03:15:33.038Z,35.27
2018-02-17T03:18:57.081Z,39.37
2018-02-17T03:22:21.168Z,36.57
2018-02-17T03:25:45.211Z,38.00
2018-02-17T03:29:08.499Z,37.30
2018-02-17T03:32:31.894Z,37.43
2018-02-17T03:35:56.017Z,35.43
2018-02-17T03:39:19.320Z,35.50
2018-02-17T03:42:42.659Z,35.47
2018-02-17T03:46:06.695Z,36.50
2018-02-17T03:49:30.827Z,35.13
2018-02-17T03:52:54.879Z,35.80
2018-02-17T03:56:18.926Z,37.83
2018-02-17T03:59:42.250Z,32.77
2018-02-17T04:03:05.496Z,34.47
2018-02-17T04:06:29.563Z,34.63
2018-02-17T04:09:52.853Z,33.43
2018-02-17T04:13:16.960Z,33.83
2018-02-17T04:16:40.235Z,35.40
2018-02-17T04:20:03.560Z,35.30
2018-02-17T04:23:26.828Z,31.13
2018-02-17T04:26:50.126Z,35.90
2018-02-17T04:30:13.449Z,33.77
2018-02-17T04:33:36.760Z,34.90
2018-02-17T04:37:00.056Z,35.07
2018-02-17T04:40:28.644Z,33.90
2018-02-17T04:44:07.633Z,32.87
2018-02-17T04:47:33.179Z,34.27
2018-02-17T04:51:02.052Z,32.63
2018-02-17T04:54:37.141Z,33.70
2018-02-17T04:58:00.406Z,32.43
2018-02-17T05:01:39.568Z,32.33
2018-02-17T05:05:08.272Z,31.37
2018-02-17T05:08:37.119Z,30.53
2018-02-17T05:12:00.389Z,29.63
2018-02-17T05:15:23.669Z,34.60
2018-02-17T05:22:43.873Z,32.30
2018-02-17T05:26:08.720Z,33.60
2018-02-17T05:29:32.772Z,33.47
2018-02-17T05:32:57.582Z,33.23
2018-02-17T05:36:33.528Z,31.47
2018-02-17T05:40:13.619Z,30.97
2018-02-17T05:43:36.904Z,30.63
2018-02-17T05:47:00.997Z,30.00
2018-02-17T05:50:24.597Z,28.57
2018-02-17T05:53:48.196Z,31.37
2018-02-17T05:57:12.303Z,30.97
2018-02-17T06:00:35.626Z,28.70
2018-02-17T06:03:58.922Z,32.17
2018-02-17T06:07:22.191Z,30.57
2018-02-17T06:10:45.491Z,24.47
2018-02-17T06:14:08.787Z,27.13
2018-02-17T06:17:32.173Z,28.07
2018-02-17T06:20:55.544Z,27.00
2018-02-17T06:24:18.826Z,27.27
2018-02-17T06:27:42.948Z,27.43
2018-02-17T06:31:06.266Z,25.43
2018-02-17T06:34:29.636Z,26.90
2018-02-17T06:37:52.893Z,28.33
2018-02-17T06:41:16.237Z,28.90
2018-02-17T06:44:40.275Z,27.43
2018-02-17T06:48:03.565Z,28.23
2018-02-17T06:51:26.873Z,28.63
2018-02-17T06:54:50.158Z,27.43
2018-02-17T06:58:14.227Z,26.40
2018-02-17T07:01:37.519Z,27.07
2018-02-17T07:05:00.798Z,28.53
2018-02-17T07:08:24.921Z,25.27
2018-02-17T07:11:48.215Z,30.73
2018-02-17T07:15:12.244Z,29.30
2018-02-17T07:18:35.554Z,29.77
2018-02-17T07:21:59.636Z,27.57
2018-02-17T07:25:23.692Z,25.47
2018-02-17T07:28:47.019Z,25.93
2018-02-17T07:32:10.412Z,29.53
2018-02-17T07:35:34.512Z,25.87
2018-02-17T07:38:58.713Z,30.63
2018-02-17T07:42:22.351Z,28.33
2018-02-17T07:45:46.068Z,25.70
2018-02-17T07:49:10.332Z,23.63
2018-02-17T07:52:34.720Z,25.93
2018-02-17T07:55:58.736Z,26.13
2018-02-17T07:59:25.033Z,24.87
2018-02-17T08:02:49.340Z,25.77
2018-02-17T08:06:13.665Z,22.70
2018-02-17T08:09:37.211Z,24.97
2018-02-17T08:13:01.322Z,23.83
2018-02-17T08:16:24.685Z,21.77
2018-02-17T08:19:48.135Z,20.80
2018-02-17T08:23:12.316Z,21.13
2018-02-17T08:26:36.756Z,19.00
2018-02-17T08:30:00.263Z,21.30
2018-02-17T08:33:24.473Z,20.20
2018-02-17T08:36:47.836Z,21.67
2018-02-17T08:40:11.919Z,20.23
2018-02-17T08:43:35.214Z,18.77
2018-02-17T08:46:59.363Z,18.50
2018-02-17T08:50:23.451Z,18.57
2018-02-17T08:53:48.755Z,18.73
2018-02-17T08:57:12.930Z,15.53
2018-02-17T09:00:36.188Z,17.10
2018-02-17T09:03:59.458Z,13.40
2018-02-17T09:07:22.860Z,14.00
2018-02-17T09:10:50.875Z,14.77
2018-02-17T09:14:14.198Z,13.40
2018-02-17T09:17:37.567Z,13.37
2018-02-17T09:21:00.842Z,13.33
2018-02-17T09:24:25.077Z,15.17
2018-02-17T09:27:48.343Z,12.00
2018-02-17T09:31:13.081Z,12.50
2018-02-17T09:34:37.011Z,13.73
2018-02-17T09:38:00.311Z,12.77
2018-02-17T09:41:24.403Z,11.70
2018-02-17T09:44:48.530Z,12.37
2018-02-17T09:48:11.857Z,11.90
2018-02-17T09:51:35.909Z,13.50
2018-02-17T09:54:59.252Z,11.97
2018-02-17T09:58:22.797Z,12.00
2018-02-17T10:01:46.827Z,12.10
2018-02-17T10:05:10.151Z,15.40
2018-02-17T10:08:33.458Z,14.37
2018-02-17T10:11:57.667Z,14.73
2018-02-17T10:15:21.176Z,15.77
2018-02-17T10:18:45.461Z,15.07
2018-02-17T10:22:11.809Z,18.97
2018-02-17T10:25:35.397Z,22.80
2018-02-17T10:28:59.012Z,16.63
2018-02-17T10:32:22.514Z,16.90
2018-02-17T10:35:46.797Z,17.97
2018-02-17T10:39:10.343Z,16.93
2018-02-17T10:42:33.931Z,15.77
2018-02-17T10:45:59.199Z,18.27
2018-02-17T10:49:22.611Z,15.27
2018-02-17T10:52:46.783Z,18.13
2018-02-17T10:56:11.778Z,18.37
2018-02-17T10:59:35.313Z,17.43
2018-02-17T11:02:59.419Z,16.17
2018-02-17T11:06:24.949Z,15.60
2018-02-17T11:09:48.894Z,15.97
2018-02-17T11:13:12.307Z,12.80
2018-02-17T11:16:35.763Z,14.63
2018-02-17T11:20:00.212Z,14.87
2018-02-17T11:23:26.913Z,17.07
2018-02-17T11:26:51.079Z,14.10
2018-02-17T11:30:14.773Z,14.07
2018-02-17T11:33:42.283Z,15.13
2018-02-17T11:37:06.473Z,17.23
2018-02-17T11:48:30.311Z,16.80
2018-02-17T11:51:54.419Z,19.20
2018-02-17T11:55:18.542Z,20.00
2018-02-17T11:58:42.611Z,19.17
2018-02-17T12:02:05.892Z,16.63
2018-02-17T12:05:29.984Z,18.90
2018-02-17T12:08:54.160Z,19.87
2018-02-17T12:12:18.194Z,17.80
2018-02-17T12:15:41.451Z,17.23
2018-02-17T12:19:04.752Z,21.30
2018-02-17T12:22:28.827Z,16.17
2018-02-17T12:25:52.922Z,15.30
2018-02-17T12:29:17.062Z,15.70
2018-02-17T12:32:41.144Z,14.10
2018-02-17T12:36:05.274Z,13.47
2018-02-17T12:39:28.607Z,14.87
2018-02-17T12:42:53.364Z,16.13
2018-02-17T12:46:17.441Z,17.33
2018-02-17T12:49:41.532Z,17.00
2018-02-17T12:53:05.622Z,14.40
2018-02-17T12:56:29.001Z,17.07
2018-02-17T12:59:52.335Z,13.27
2018-02-17T13:03:15.674Z,16.93
2018-02-17T13:06:39.754Z,17.13
2018-02-17T13:10:03.057Z,14.70
2018-02-17T13:13:26.394Z,16.07
2018-02-17T13:16:49.670Z,17.73
2018-02-17T13:20:13.765Z,16.17
2018-02-17T13:23:37.101Z,18.60
2018-02-17T13:27:00.397Z,19.13
2018-02-17T13:30:28.013Z,18.00
2018-02-17T13:33:54.054Z,16.17
2018-02-17T13:37:20.002Z,16.07
2018-02-17T13:40:43.588Z,15.17
2018-02-17T13:44:07.636Z,17.63
2018-02-17T13:47:32.323Z,16.87
2018-02-17T13:50:55.723Z,14.87
2018-02-17T13:54:19.840Z,13.90
2018-02-17T13:57:43.896Z,14.07
2018-02-17T14:01:07.191Z,16.43
2018-02-17T14:04:30.492Z,17.03
2018-02-17T14:07:53.820Z,13.77
2018-02-17T14:11:17.492Z,11.50
2018-02-17T14:14:40.783Z,12.57
2018-02-17T14:18:05.876Z,11.80
2018-02-17T14:21:29.353Z,14.37
2018-02-17T14:24:52.713Z,12.77
2018-02-17T14:28:15.985Z,13.47
2018-02-17T14:31:39.409Z,12.90
2018-02-17T14:35:02.720Z,12.23
2018-02-17T14:38:26.038Z,12.40
2018-02-17T14:41:50.159Z,13.23
2018-02-17T14:45:14.189Z,11.87
2018-02-17T14:48:38.229Z,14.93
2018-02-17T14:52:02.281Z,13.03
2018-02-17T14:55:25.678Z,13.87
2018-02-17T14:58:48.965Z,12.20
2018-02-17T15:02:13.070Z,13.60
2018-02-17T15:05:36.408Z,10.53
2018-02-17T15:09:00.597Z,8.63
2018-02-17T15:12:24.642Z,8.17
2018-02-17T15:15:48.701Z,7.90
2018-02-17T15:19:12.026Z,8.00
2018-02-17T15:22:36.264Z,7.63
2018-02-17T15:26:00.154Z,7.87
2018-02-17T15:29:23.474Z,7.67
2018-02-17T15:32:46.948Z,9.17
2018-02-17T15:36:11.451Z,7.60
2018-02-17T15:39:35.520Z,8.17
2018-02-17T15:42:58.816Z,7.03
2018-02-17T15:46:22.863Z,6.20
2018-02-17T15:49:47.109Z,6.63
2018-02-17T15:53:10.381Z,5.60
2018-02-17T15:56:33.665Z,5.37
2018-02-17T15:59:58.567Z,4.37
2018-02-17T16:03:21.862Z,4.20
2018-02-17T16:06:46.332Z,4.77
2018-02-17T16:10:10.513Z,5.40
2018-02-17T16:13:33.829Z,3.60
2018-02-17T16:16:57.114Z,4.30
2018-02-17T16:20:21.231Z,4.47
2018-02-17T16:23:44.509Z,4.50
2018-02-17T16:27:07.884Z,4.60
2018-02-17T16:30:31.155Z,4.77
2018-02-17T16:33:58.404Z,4.03
2018-02-17T16:37:22.434Z,3.83
2018-02-17T16:40:46.702Z,3.47
2018-02-17T16:44:11.043Z,3.90
2018-02-17T16:47:35.484Z,3.73
2018-02-17T16:50:59.872Z,3.50
2018-02-17T16:54:24.765Z,3.67
2018-02-17T16:57:49.551Z,3.13
2018-02-17T17:01:15.904Z,2.67
2018-02-17T17:04:40.325Z,2.30
2018-02-17T17:08:05.122Z,2.40
2018-02-17T17:11:29.856Z,2.10
2018-02-17T17:14:54.372Z,2.27
2018-02-17T17:18:18.873Z,2.33
2018-02-17T17:21:43.207Z,2.30
2018-02-17T17:25:06.861Z,3.07
2018-02-17T17:28:30.592Z,2.17
2018-02-17T17:31:54.337Z,2.17
2018-02-17T17:35:17.731Z,1.87
2018-02-17T17:38:41.787Z,1.40
2018-02-17T17:42:05.117Z,1.70
2018-02-17T17:45:28.449Z,1.90
2018-02-17T17:48:52.516Z,1.63
2018-02-17T17:52:15.840Z,1.20
2018-02-17T17:55:39.211Z,2.00
2018-02-17T17:59:02.559Z,2.20
2018-02-17T18:02:40.714Z,1.27
2018-02-17T18:06:04.178Z,1.20
2018-02-17T18:09:29.471Z,1.20
2018-02-17T18:13:14.592Z,1.20
2018-02-17T18:16:49.592Z,1.20
2018-02-17T18:20:13.980Z,1.47
2018-02-17T18:23:38.442Z,1.43
2018-02-17T18:27:02.543Z,1.10
2018-02-17T18:30:26.414Z,1.10
2018-02-17T18:33:50.724Z,1.10
2018-02-17T18:37:16.173Z,1.30
2018-02-17T18:40:40.510Z,1.17
2018-02-17T18:44:06.811Z,1.40
2018-02-17T18:47:31.034Z,1.20
2018-02-17T18:50:54.353Z,1.20
2018-02-17T18:54:18.871Z,1.40
2018-02-17T18:57:42.209Z,1.40
2018-02-17T19:01:06.299Z,1.20
2018-02-17T19:04:29.805Z,2.00
2018-02-17T19:07:57.317Z,1.90
2018-02-17T19:11:22.070Z,1.47
2018-02-17T19:14:47.698Z,1.30
2018-02-17T19:18:14.042Z,1.40
2018-02-17T19:21:39.067Z,1.67
2018-02-17T19:25:02.452Z,1.30
2018-02-17T19:28:25.765Z,1.33
2018-02-17T19:31:49.161Z,1.33
2018-02-17T19:35:14.383Z,1.30
2018-02-17T19:38:37.771Z,1.50
2018-02-17T19:42:01.165Z,1.40
2018-02-17T19:45:25.391Z,1.30
2018-02-17T19:48:48.766Z,2.50
2018-02-17T19:52:12.133Z,1.50
2018-02-17T19:55:35.474Z,1.40
2018-02-17T19:58:59.633Z,1.90
2018-02-17T20:02:22.966Z,1.73
2018-02-17T20:05:53.491Z,1.87
2018-02-17T20:09:19.004Z,2.27
2018-02-17T20:12:46.377Z,2.17
2018-02-17T20:16:09.774Z,1.80
2018-02-17T20:19:33.876Z,1.93
2018-02-17T20:22:58.126Z,2.50
2018-02-17T20:26:21.756Z,3.53
2018-02-17T20:29:45.271Z,2.20
2018-02-17T20:33:10.343Z,2.40
2018-02-17T20:36:35.327Z,3.27
2018-02-17T20:39:58.766Z,2.57
2018-02-17T20:43:22.922Z,3.67
2018-02-17T20:46:47.656Z,2.63
2018-02-17T20:50:11.887Z,2.10
2018-02-17T20:53:36.051Z,2.20
2018-02-17T20:57:01.115Z,2.53
2018-02-17T21:08:34.337Z,2.60
2018-02-17T21:11:59.111Z,3.23
2018-02-17T21:15:25.086Z,3.33
2018-02-17T21:18:49.358Z,4.07
2018-02-17T21:22:14.482Z,3.73
2018-02-17T21:25:37.771Z,4.37
2018-02-17T21:29:01.096Z,3.60
2018-02-17T21:32:24.377Z,4.70
2018-02-17T21:35:50.676Z,4.60
2018-02-17T21:39:14.864Z,4.77
2018-02-17T21:42:39.566Z,7.00
2018-02-17T21:46:03.312Z,4.30
2018-02-17T21:49:26.766Z,5.20
2018-02-17T21:52:51.255Z,4.60
2018-02-17T21:56:15.473Z,4.47
2018-02-17T21:59:38.920Z,4.33
2018-02-17T22:03:03.134Z,4.00
2018-02-17T22:06:29.221Z,4.70
2018-02-17T22:09:52.647Z,4.77
2018-02-17T22:13:19.270Z,4.50
2018-02-17T22:16:46.188Z,3.90
2018-02-17T22:20:13.532Z,4.20
2018-02-17T22:23:39.120Z,4.97
2018-02-17T22:27:02.585Z,4.13
2018-02-17T22:30:25.942Z,4.80
2018-02-17T22:33:49.992Z,4.50
2018-02-17T22:37:13.302Z,4.47
2018-02-17T22:40:37.380Z,4.93
2018-02-17T22:44:01.421Z,4.70
2018-02-17T22:47:25.555Z,7.20
2018-02-17T22:50:49.699Z,4.80
2018-02-17T22:54:13.741Z,6.60
2018-02-17T22:57:37.044Z,7.80
2018-02-17T23:01:01.158Z,6.20
2018-02-17T23:04:24.411Z,6.50
2018-02-17T23:07:48.539Z,6.50
2018-02-17T23:11:12.627Z,6.97
2018-02-17T23:14:36.670Z,6.97
2018-02-17T23:18:00.719Z,6.43
2018-02-17T23:21:24.067Z,6.93
2018-02-17T23:24:48.196Z,6.87
2018-02-17T23:28:11.546Z,6.77
2018-02-17T23:31:35.616Z,6.87
2018-02-17T23:35:00.116Z,6.63
2018-02-17T23:38:24.152Z,7.43
2018-02-17T23:41:48.273Z,8.03
2018-02-17T23:45:11.646Z,7.13
2018-02-17T23:48:35.170Z,7.67
2018-02-17T23:52:00.355Z,7.67
2018-02-17T23:55:23.732Z,7.13
2018-02-17T23:58:47.028Z,7.50
